Time;durP1;ratioP1;P1;durP2;ratioP2;P2;SDS_P1;SDS_P2;PMS_P1;PMS_P2;Temp;Humidity;BMP_temperature;BMP_pressure;BME280_temperature;BME280_humidity;BME280_pressure;Samples;Min_cycle;Max_cycle;Signal;HPM_P1;HPM_P2
2023/12/16 00:00:09;;;;;;;25.58;14.55;;;7.20;99.90;;;;;;4970150;28;20375;-47
2023/12/16 00:02:35;;;;;;;21.13;13.30;;;7.10;99.90;;;;;;4969975;28;20033;-47
2023/12/16 00:05:00;;;;;;;20.88;12.90;;;7.20;99.90;;;;;;4952989;28;20027;-47
2023/12/16 00:07:26;;;;;;;21.02;13.55;;;7.10;99.90;;;;;;4970126;28;20482;-46
2023/12/16 00:09:51;;;;;;;19.00;13.35;;;7.20;99.90;;;;;;4970042;28;20031;-47
2023/12/16 00:12:17;;;;;;;21.45;13.02;;;7.10;99.90;;;;;;4952627;28;20034;-46
2023/12/16 00:14:42;;;;;;;18.40;13.55;;;7.10;99.90;;;;;;4969909;28;20509;-48
2023/12/16 00:17:08;;;;;;;21.05;13.63;;;7.10;99.90;;;;;;4969998;28;20148;-50
2023/12/16 00:19:33;;;;;;;31.80;13.60;;;7.20;99.90;;;;;;4970080;28;20035;-49
2023/12/16 00:21:59;;;;;;;20.13;14.27;;;7.10;99.90;;;;;;4969876;28;20027;-48
2023/12/16 00:24:25;;;;;;;18.13;12.63;;;7.20;99.90;;;;;;4969648;28;20045;-47
2023/12/16 00:26:51;;;;;;;24.60;14.05;;;7.10;99.90;;;;;;4970281;28;20026;-46
2023/12/16 00:29:16;;;;;;;20.27;13.82;;;7.10;99.90;;;;;;4969837;28;20536;-47
2023/12/16 00:31:43;;;;;;;22.73;14.15;;;7.10;99.90;;;;;;4969644;28;20030;-50
2023/12/16 00:34:08;;;;;;;22.80;14.82;;;7.10;99.90;;;;;;4969645;28;20117;-50
2023/12/16 00:36:34;;;;;;;21.02;13.88;;;7.10;99.90;;;;;;4989696;22;20504;-44
2023/12/16 00:38:59;;;;;;;18.63;14.30;;;7.10;99.90;;;;;;4969957;28;20039;-46
2023/12/16 00:41:25;;;;;;;22.55;14.18;;;7.10;99.90;;;;;;4969622;28;20513;-45
2023/12/16 00:43:50;;;;;;;21.83;13.43;;;7.10;99.90;;;;;;4952393;28;20031;-45
2023/12/16 00:46:16;;;;;;;18.73;12.80;;;7.10;99.90;;;;;;4969683;28;20126;-48
2023/12/16 00:48:43;;;;;;;21.23;13.88;;;7.10;99.90;;;;;;4973020;28;20023;-47
2023/12/16 00:51:08;;;;;;;20.33;14.43;;;7.10;99.90;;;;;;4973255;28;20023;-46
2023/12/16 00:53:34;;;;;;;22.42;13.20;;;7.00;99.90;;;;;;4973001;28;20393;-42
2023/12/16 00:55:59;;;;;;;18.08;13.43;;;7.10;99.90;;;;;;4973094;28;20026;-42
2023/12/16 00:58:25;;;;;;;24.67;14.60;;;7.10;99.90;;;;;;4973034;28;20027;-43
2023/12/16 01:00:50;;;;;;;26.48;13.25;;;7.20;99.90;;;;;;4972983;28;20098;-42
2023/12/16 01:03:16;;;;;;;22.38;13.25;;;7.20;99.90;;;;;;4972873;28;20522;-44
2023/12/16 01:05:41;;;;;;;19.92;14.23;;;7.10;99.90;;;;;;4973134;28;20118;-49
2023/12/16 01:08:07;;;;;;;20.30;13.23;;;7.10;99.90;;;;;;4973786;28;20019;-43
2023/12/16 01:10:32;;;;;;;20.88;14.18;;;7.20;99.90;;;;;;4972867;28;20110;-44
2023/12/16 01:12:58;;;;;;;19.88;13.75;;;7.10;99.90;;;;;;4972806;28;20027;-42
2023/12/16 01:15:23;;;;;;;17.35;12.93;;;7.20;99.90;;;;;;4972695;28;20105;-47
2023/12/16 01:17:49;;;;;;;22.20;14.00;;;7.20;99.90;;;;;;4972916;28;20031;-43
2023/12/16 01:20:15;;;;;;;19.77;13.63;;;7.20;99.90;;;;;;4972712;28;20398;-46
2023/12/16 01:22:41;;;;;;;23.13;12.70;;;7.20;99.90;;;;;;4972787;28;20026;-43
2023/12/16 01:25:07;;;;;;;23.08;13.15;;;7.20;99.90;;;;;;4972738;28;20450;-43
2023/12/16 01:27:33;;;;;;;17.35;12.40;;;7.10;99.90;;;;;;4972820;28;20055;-43
2023/12/16 01:29:58;;;;;;;24.05;13.82;;;7.10;99.90;;;;;;4972611;28;20076;-45
2023/12/16 01:32:24;;;;;;;19.95;13.73;;;7.10;99.90;;;;;;4972289;28;20026;-42
2023/12/16 01:34:49;;;;;;;19.95;12.63;;;7.00;99.90;;;;;;4972287;28;20023;-43
2023/12/16 01:37:15;;;;;;;21.17;13.38;;;7.00;99.90;;;;;;4972574;28;20058;-45
2023/12/16 01:39:40;;;;;;;20.55;13.32;;;7.00;99.90;;;;;;4972221;28;20027;-45
2023/12/16 01:42:06;;;;;;;21.13;12.45;;;6.90;99.90;;;;;;4972329;28;20102;-44
2023/12/16 01:44:31;;;;;;;17.27;12.50;;;7.00;99.90;;;;;;4972149;28;20039;-41
2023/12/16 01:46:57;;;;;;;23.27;13.57;;;6.90;99.90;;;;;;4972193;28;20075;-45
2023/12/16 01:49:24;;;;;;;22.10;13.88;;;6.90;99.90;;;;;;4972327;28;20046;-45
2023/12/16 01:51:50;;;;;;;19.20;13.57;;;6.90;99.90;;;;;;4972151;28;20030;-46
2023/12/16 01:54:15;;;;;;;17.83;13.13;;;6.80;99.90;;;;;;4954779;28;20077;-43
2023/12/16 01:56:41;;;;;;;16.30;12.77;;;6.80;99.90;;;;;;4954974;28;20023;-46
2023/12/16 01:59:07;;;;;;;20.67;13.80;;;6.80;99.90;;;;;;4971339;28;20038;-47
2023/12/16 02:01:33;;;;;;;20.15;13.32;;;6.80;99.90;;;;;;4972163;28;20488;-51
2023/12/16 02:03:59;;;;;;;19.92;12.82;;;6.80;99.90;;;;;;4971945;28;20058;-40
2023/12/16 02:06:26;;;;;;;17.40;12.45;;;6.80;99.90;;;;;;4971584;28;20068;-41
2023/12/16 02:08:51;;;;;;;18.88;12.73;;;6.90;99.90;;;;;;4972258;28;20263;-45
2023/12/16 02:11:17;;;;;;;15.70;12.57;;;6.90;99.90;;;;;;4954309;28;20491;-41
2023/12/16 02:13:42;;;;;;;20.33;13.65;;;7.00;99.90;;;;;;4971774;28;20034;-45
2023/12/16 02:16:11;;;;;;;21.58;14.07;;;7.00;99.90;;;;;;4971805;28;20550;-48
2023/12/16 02:18:37;;;;;;;15.80;12.30;;;6.90;99.90;;;;;;4971935;28;20101;-46
2023/12/16 02:21:03;;;;;;;19.13;13.55;;;7.00;99.90;;;;;;4972104;28;20101;-43
2023/12/16 02:23:29;;;;;;;21.40;13.75;;;6.90;99.90;;;;;;4971900;28;20034;-42
2023/12/16 02:25:54;;;;;;;17.35;12.25;;;7.00;99.90;;;;;;4971629;28;20403;-43
2023/12/16 02:28:20;;;;;;;19.98;13.93;;;6.90;99.90;;;;;;4971810;28;20042;-41
2023/12/16 02:30:45;;;;;;;21.90;13.07;;;6.90;99.90;;;;;;4971754;28;20326;-46
2023/12/16 02:33:11;;;;;;;21.75;13.13;;;6.90;99.90;;;;;;4971817;28;20031;-43
2023/12/16 02:35:36;;;;;;;16.88;12.45;;;6.90;99.90;;;;;;4971471;28;20030;-46
2023/12/16 02:38:02;;;;;;;20.42;13.65;;;6.90;99.90;;;;;;4971783;28;20023;-43
2023/12/16 02:40:28;;;;;;;22.73;13.15;;;6.80;99.90;;;;;;4971538;28;20027;-44
2023/12/16 02:42:53;;;;;;;17.88;13.30;;;6.80;99.90;;;;;;4971312;28;20038;-41
2023/12/16 02:45:19;;;;;;;23.10;13.23;;;6.80;99.90;;;;;;4971540;28;20075;-46
2023/12/16 02:47:44;;;;;;;20.45;13.38;;;6.80;99.90;;;;;;4971449;28;20501;-43
2023/12/16 02:50:10;;;;;;;20.88;11.98;;;6.80;99.90;;;;;;4971435;28;20083;-43
2023/12/16 02:52:36;;;;;;;19.63;12.90;;;6.80;99.90;;;;;;4971465;28;20023;-44
2023/12/16 02:55:01;;;;;;;19.08;12.38;;;6.80;99.90;;;;;;4971161;28;20058;-43
2023/12/16 02:57:27;;;;;;;22.42;12.73;;;6.90;99.90;;;;;;4971603;28;20519;-44
2023/12/16 02:59:52;;;;;;;19.85;12.70;;;6.80;99.90;;;;;;4972032;28;20507;-45
2023/12/16 03:02:18;;;;;;;18.80;13.27;;;6.80;99.90;;;;;;4953773;28;20037;-43
2023/12/16 03:04:44;;;;;;;23.92;14.85;;;6.80;99.90;;;;;;4971003;28;20068;-43
2023/12/16 03:07:10;;;;;;;19.70;13.93;;;6.80;99.90;;;;;;4953560;28;20513;-44
2023/12/16 03:09:35;;;;;;;20.35;13.38;;;6.80;99.90;;;;;;4971180;28;20023;-45
2023/12/16 03:12:01;;;;;;;23.65;14.52;;;6.80;99.90;;;;;;4970949;28;20058;-48
2023/12/16 03:14:27;;;;;;;22.88;15.30;;;6.80;99.90;;;;;;4970997;28;20398;-43
2023/12/16 03:16:53;;;;;;;20.73;14.60;;;6.80;99.90;;;;;;4970856;28;20034;-41
2023/12/16 03:19:18;;;;;;;26.05;15.07;;;6.80;99.90;;;;;;4970983;28;20027;-45
2023/12/16 03:21:44;;;;;;;20.85;13.93;;;6.80;99.90;;;;;;4970867;28;20031;-43
2023/12/16 03:24:09;;;;;;;24.40;14.82;;;6.90;99.90;;;;;;4970824;28;20431;-46
2023/12/16 03:26:35;;;;;;;18.95;13.50;;;6.90;99.90;;;;;;4953395;28;20027;-47
2023/12/16 03:29:01;;;;;;;22.67;14.52;;;6.80;99.90;;;;;;4970727;28;20035;-43
2023/12/16 03:31:26;;;;;;;22.58;14.48;;;6.90;99.90;;;;;;4970670;28;20042;-43
2023/12/16 03:33:53;;;;;;;22.98;14.13;;;6.90;99.90;;;;;;4970769;28;20034;-41
2023/12/16 03:36:19;;;;;;;21.35;14.20;;;6.80;99.90;;;;;;4970672;28;20030;-42
2023/12/16 03:38:44;;;;;;;19.48;12.82;;;6.90;99.90;;;;;;4970869;28;20153;-41
2023/12/16 03:41:11;;;;;;;21.17;14.68;;;6.90;99.90;;;;;;4970482;28;20106;-41
2023/12/16 03:43:37;;;;;;;20.65;14.48;;;7.00;99.90;;;;;;4970368;28;20394;-45
2023/12/16 03:46:02;;;;;;;25.98;15.00;;;6.90;99.90;;;;;;4970418;28;20233;-41
2023/12/16 03:48:28;;;;;;;21.70;15.38;;;6.80;99.90;;;;;;4970668;28;20067;-41
2023/12/16 03:50:53;;;;;;;21.45;14.32;;;6.90;99.90;;;;;;4970812;28;20023;-41
2023/12/16 03:53:19;;;;;;;27.50;14.65;;;6.90;99.90;;;;;;4970405;28;20023;-44
2023/12/16 03:55:44;;;;;;;18.58;13.50;;;7.00;99.90;;;;;;4971919;28;20062;-42
2023/12/16 03:58:10;;;;;;;23.05;15.15;;;6.90;99.90;;;;;;4970630;28;20031;-43
2023/12/16 04:00:35;;;;;;;23.42;14.50;;;6.90;99.90;;;;;;4970456;28;20027;-48
2023/12/16 04:03:01;;;;;;;20.98;14.90;;;6.90;99.90;;;;;;4970100;28;20118;-44
2023/12/16 04:05:27;;;;;;;20.77;14.45;;;6.90;99.90;;;;;;4970270;28;20027;-43
2023/12/16 04:07:52;;;;;;;20.05;13.63;;;6.90;99.90;;;;;;4970240;28;20105;-43
2023/12/16 04:10:18;;;;;;;21.23;13.32;;;6.90;99.90;;;;;;4970266;28;20100;-41
2023/12/16 04:12:43;;;;;;;21.83;13.82;;;7.00;99.90;;;;;;4970084;28;20035;-42
2023/12/16 04:15:11;;;;;;;25.02;13.05;;;6.90;99.90;;;;;;4970283;28;20100;-43
2023/12/16 04:17:37;;;;;;;21.10;14.05;;;7.00;99.90;;;;;;4970167;28;20035;-43
2023/12/16 04:20:03;;;;;;;22.35;14.23;;;7.00;99.90;;;;;;4970601;28;20023;-43
2023/12/16 04:22:28;;;;;;;21.50;13.93;;;6.90;99.90;;;;;;4970221;28;20555;-40
2023/12/16 04:24:57;;;;;;;18.17;12.43;;;7.00;99.90;;;;;;4970627;28;20500;-42
2023/12/16 04:27:24;;;;;;;22.08;13.00;;;7.00;99.90;;;;;;4970235;28;20429;-42
2023/12/16 04:29:49;;;;;;;22.27;13.27;;;6.90;99.90;;;;;;4970529;28;20030;-45
2023/12/16 04:32:15;;;;;;;21.73;14.23;;;6.90;99.90;;;;;;4970090;28;20512;-43
2023/12/16 04:38:02;;;;;;;21.63;13.30;;;6.90;99.90;;;;;;4969726;28;20089;-42
2023/12/16 04:40:28;;;;;;;20.58;13.43;;;6.80;99.90;;;;;;4970774;28;20039;-41
2023/12/16 04:42:53;;;;;;;18.90;14.23;;;6.70;99.90;;;;;;4970480;28;20072;-42
2023/12/16 04:45:19;;;;;;;18.60;12.73;;;6.80;99.90;;;;;;4970339;28;20113;-42
2023/12/16 04:47:45;;;;;;;27.60;15.48;;;6.70;99.90;;;;;;4969822;28;20019;-42
2023/12/16 04:50:11;;;;;;;20.40;12.80;;;6.70;99.90;;;;;;4969844;28;20038;-42
2023/12/16 04:52:36;;;;;;;23.73;13.35;;;6.70;99.90;;;;;;4969677;28;20030;-42
2023/12/16 04:55:03;;;;;;;20.38;13.55;;;6.60;99.90;;;;;;4969625;28;20034;-42
2023/12/16 04:57:28;;;;;;;17.25;13.20;;;6.70;99.90;;;;;;4969738;28;20031;-42
2023/12/16 04:59:54;;;;;;;20.38;12.88;;;6.70;99.90;;;;;;4952349;28;20033;-45
2023/12/16 05:02:19;;;;;;;16.80;12.20;;;6.70;99.90;;;;;;4969405;28;20031;-42
2023/12/16 05:04:45;;;;;;;18.15;12.63;;;6.70;99.90;;;;;;4969413;28;20050;-43
2023/12/16 05:07:10;;;;;;;20.27;12.52;;;6.70;99.90;;;;;;4969098;28;20023;-44
2023/12/16 05:09:36;;;;;;;20.88;13.30;;;6.70;99.90;;;;;;4952281;28;20478;-41
2023/12/16 05:12:01;;;;;;;21.55;12.75;;;6.70;99.90;;;;;;4969307;28;20037;-42
2023/12/16 05:14:27;;;;;;;19.13;13.80;;;6.70;99.90;;;;;;4969307;28;20099;-43
2023/12/16 05:16:53;;;;;;;24.63;14.38;;;6.70;99.90;;;;;;4969338;28;20042;-46
2023/12/16 05:19:19;;;;;;;19.80;12.90;;;6.60;99.90;;;;;;4952077;28;20371;-42
2023/12/16 05:21:44;;;;;;;21.20;13.40;;;6.60;99.90;;;;;;4969224;28;20049;-46
2023/12/16 05:24:10;;;;;;;21.08;13.77;;;6.60;99.90;;;;;;4951860;28;20042;-44
2023/12/16 05:26:35;;;;;;;22.52;14.75;;;6.50;99.90;;;;;;4969136;28;20070;-41
2023/12/16 05:29:01;;;;;;;25.55;15.00;;;6.60;99.90;;;;;;4969086;28;20091;-44
2023/12/16 05:31:26;;;;;;;23.90;14.80;;;6.50;99.90;;;;;;4969234;28;20493;-45
2023/12/16 05:33:52;;;;;;;21.73;15.27;;;6.60;99.90;;;;;;4969749;28;20075;-44
2023/12/16 05:36:17;;;;;;;22.13;14.38;;;6.60;99.90;;;;;;4972401;28;20050;-44
2023/12/16 05:38:43;;;;;;;25.30;15.15;;;6.60;99.90;;;;;;4972485;28;20414;-42
2023/12/16 05:41:08;;;;;;;24.65;15.73;;;6.60;99.90;;;;;;4972298;28;20505;-43
2023/12/16 05:43:34;;;;;;;19.70;14.88;;;6.60;99.90;;;;;;4972135;28;20125;-42
2023/12/16 05:46:00;;;;;;;21.73;14.25;;;6.50;99.90;;;;;;4972178;28;20577;-43
2023/12/16 05:48:26;;;;;;;23.35;16.17;;;6.60;99.90;;;;;;4972346;28;20029;-44
2023/12/16 05:50:51;;;;;;;20.80;13.68;;;6.60;99.90;;;;;;4972129;28;20025;-44
2023/12/16 05:53:17;;;;;;;21.15;13.52;;;6.60;99.90;;;;;;4954775;28;20589;-40
2023/12/16 05:55:45;;;;;;;23.35;15.10;;;6.60;99.90;;;;;;4972099;28;20035;-43
2023/12/16 05:58:11;;;;;;;24.08;13.63;;;6.60;99.90;;;;;;4972222;28;20042;-46
2023/12/16 06:00:36;;;;;;;26.65;14.68;;;6.60;99.90;;;;;;4954824;28;20519;-42
2023/12/16 06:03:02;;;;;;;19.73;14.18;;;6.60;99.90;;;;;;4971825;28;20445;-45
2023/12/16 06:05:27;;;;;;;23.60;14.65;;;6.60;99.90;;;;;;4954843;28;20027;-43
2023/12/16 06:07:53;;;;;;;18.15;14.20;;;6.60;99.90;;;;;;4971820;28;20401;-42
2023/12/16 06:10:18;;;;;;;19.55;13.68;;;6.60;99.90;;;;;;4972492;28;20030;-45
2023/12/16 06:12:44;;;;;;;20.15;14.35;;;6.70;99.90;;;;;;4971742;28;20032;-42
2023/12/16 06:15:09;;;;;;;23.67;14.75;;;6.70;99.90;;;;;;4971912;28;20035;-42
2023/12/16 06:17:35;;;;;;;24.77;16.05;;;6.70;99.90;;;;;;4972109;28;20031;-44
2023/12/16 06:20:01;;;;;;;21.92;14.98;;;6.70;99.90;;;;;;4972193;28;20371;-46
2023/12/16 06:22:27;;;;;;;21.77;14.90;;;6.70;99.90;;;;;;4971741;28;20073;-42
2023/12/16 06:24:52;;;;;;;20.35;15.60;;;6.70;99.90;;;;;;4971794;28;20042;-42
2023/12/16 06:27:18;;;;;;;22.75;14.98;;;6.70;99.90;;;;;;4954216;28;20367;-47
2023/12/16 06:29:43;;;;;;;25.88;15.18;;;6.70;99.90;;;;;;4972426;28;20027;-43
2023/12/16 06:32:09;;;;;;;21.80;14.68;;;6.70;99.90;;;;;;4971721;28;20034;-43
2023/12/16 06:34:34;;;;;;;19.88;13.43;;;6.70;99.90;;;;;;4954270;28;20091;-44
2023/12/16 06:37:00;;;;;;;23.08;15.15;;;6.70;99.90;;;;;;4991383;22;20387;-44
2023/12/16 06:39:25;;;;;;;21.67;14.80;;;6.70;99.90;;;;;;4971352;28;20034;-45
2023/12/16 06:41:51;;;;;;;23.90;16.25;;;6.80;99.90;;;;;;4971384;28;20027;-46
2023/12/16 06:44:16;;;;;;;21.90;14.52;;;6.70;99.90;;;;;;4971112;28;20542;-46
2023/12/16 06:46:42;;;;;;;23.80;15.73;;;6.70;99.90;;;;;;4971429;28;20038;-48
2023/12/16 06:49:07;;;;;;;23.02;15.00;;;6.70;99.90;;;;;;4971917;28;20041;-50
2023/12/16 06:51:33;;;;;;;21.45;14.27;;;6.60;99.90;;;;;;4953918;28;20026;-46
2023/12/16 06:53:58;;;;;;;27.05;15.85;;;6.60;99.90;;;;;;4971237;28;20027;-50
2023/12/16 06:56:24;;;;;;;23.05;16.00;;;6.60;99.90;;;;;;4971112;28;20029;-49
2023/12/16 06:58:50;;;;;;;25.48;15.30;;;6.60;99.90;;;;;;4971248;28;20123;-45
2023/12/16 07:01:15;;;;;;;22.33;14.60;;;6.50;99.90;;;;;;4971027;28;20051;-47
2023/12/16 07:03:41;;;;;;;20.48;15.05;;;6.40;99.90;;;;;;4953591;28;20490;-50
2023/12/16 07:06:08;;;;;;;25.55;14.88;;;6.40;99.90;;;;;;4970722;28;20045;-49
2023/12/16 07:08:36;;;;;;;20.70;15.18;;;6.40;99.90;;;;;;4971195;28;20027;-49
2023/12/16 07:11:03;;;;;;;27.83;14.70;;;6.40;99.90;;;;;;4953653;28;20068;-47
2023/12/16 07:13:29;;;;;;;25.80;15.15;;;6.40;99.90;;;;;;4953606;28;20100;-47
2023/12/16 07:15:54;;;;;;;25.77;14.63;;;6.40;99.90;;;;;;4971399;28;20488;-52
2023/12/16 07:18:20;;;;;;;21.33;13.98;;;6.40;99.90;;;;;;4970893;28;20510;-48
2023/12/16 07:20:45;;;;;;;18.65;13.63;;;6.40;99.90;;;;;;4970831;28;20452;-47
2023/12/16 07:23:11;;;;;;;19.75;14.23;;;6.40;99.90;;;;;;4953597;28;20042;-48
2023/12/16 07:25:36;;;;;;;21.63;14.10;;;6.40;99.90;;;;;;4970805;28;20027;-46
2023/12/16 07:28:02;;;;;;;19.45;14.50;;;6.50;99.90;;;;;;4970888;28;20027;-46
2023/12/16 07:30:27;;;;;;;19.02;12.30;;;6.40;99.90;;;;;;4970772;28;20026;-46
2023/12/16 07:32:53;;;;;;;27.45;13.80;;;6.50;99.90;;;;;;4970604;28;20456;-48
2023/12/16 07:35:19;;;;;;;23.48;14.00;;;6.50;99.90;;;;;;4970533;28;20037;-45
2023/12/16 07:37:44;;;;;;;16.52;13.25;;;6.50;99.90;;;;;;4970996;28;20034;-45
2023/12/16 07:40:10;;;;;;;24.77;14.75;;;6.60;99.90;;;;;;4970664;28;20375;-45
2023/12/16 07:42:39;;;;;;;20.30;13.68;;;6.50;99.90;;;;;;4970422;28;20446;-45
2023/12/16 07:45:06;;;;;;;20.30;13.18;;;6.50;99.90;;;;;;4970548;28;20108;-45
2023/12/16 07:47:32;;;;;;;23.17;14.88;;;6.50;99.90;;;;;;4953331;28;20197;-46
2023/12/16 07:49:58;;;;;;;17.95;13.05;;;6.50;99.90;;;;;;4953230;28;20029;-47
2023/12/16 07:52:24;;;;;;;23.50;14.52;;;6.50;99.90;;;;;;4970300;28;20031;-46
2023/12/16 07:54:50;;;;;;;20.98;13.82;;;6.50;99.90;;;;;;4937174;28;20027;-47
2023/12/16 07:57:16;;;;;;;18.83;13.75;;;6.60;99.90;;;;;;4969526;28;20410;-45
2023/12/16 07:59:42;;;;;;;21.15;14.45;;;6.60;99.90;;;;;;4970668;28;20039;-47
2023/12/16 08:02:08;;;;;;;21.52;14.18;;;6.50;99.90;;;;;;4970462;28;20371;-48
2023/12/16 08:04:35;;;;;;;25.65;14.38;;;6.50;99.90;;;;;;4953695;28;20084;-46
2023/12/16 08:07:01;;;;;;;22.30;13.50;;;6.60;99.90;;;;;;4970155;28;20113;-48
2023/12/16 08:09:27;;;;;;;24.05;13.85;;;6.60;99.90;;;;;;4952991;28;20512;-46
2023/12/16 08:11:57;;;;;;;21.25;14.85;;;6.60;99.90;;;;;;4970245;28;20065;-49
2023/12/16 08:14:23;;;;;;;20.40;13.80;;;6.60;99.90;;;;;;4970481;28;20018;-48
2023/12/16 08:16:49;;;;;;;24.13;13.88;;;6.60;99.90;;;;;;4970161;28;20035;-49
2023/12/16 08:19:14;;;;;;;25.48;15.40;;;6.70;99.90;;;;;;4970160;28;20370;-46
2023/12/16 08:21:40;;;;;;;22.67;14.50;;;6.70;99.90;;;;;;4970053;28;20023;-45
2023/12/16 08:24:06;;;;;;;19.65;13.93;;;6.70;99.90;;;;;;4970097;28;20486;-47
2023/12/16 08:26:31;;;;;;;24.40;14.77;;;6.80;99.90;;;;;;4969920;28;20039;-45
2023/12/16 08:28:57;;;;;;;22.92;15.18;;;6.80;99.90;;;;;;4970032;28;20485;-48
2023/12/16 08:31:22;;;;;;;24.38;15.30;;;6.80;99.90;;;;;;4952549;28;20031;-50
2023/12/16 08:33:48;;;;;;;19.77;14.40;;;6.80;99.90;;;;;;4952560;28;20065;-47
2023/12/16 08:36:13;;;;;;;21.73;14.32;;;6.90;99.90;;;;;;4952469;28;20084;-52
2023/12/16 08:38:39;;;;;;;17.55;13.23;;;6.90;99.90;;;;;;4969940;28;20501;-45
2023/12/16 08:41:10;;;;;;;20.92;14.25;;;6.90;99.90;;;;;;4969821;28;20073;-48
2023/12/16 08:43:36;;;;;;;21.52;15.00;;;6.90;99.90;;;;;;4952371;28;20035;-49
2023/12/16 08:46:03;;;;;;;24.48;15.30;;;6.90;99.90;;;;;;4969491;28;20449;-48
2023/12/16 08:48:29;;;;;;;23.02;14.52;;;6.90;99.90;;;;;;4969768;28;20023;-47
2023/12/16 08:50:57;;;;;;;23.38;15.25;;;6.90;99.90;;;;;;4969694;28;20401;-50
2023/12/16 08:53:23;;;;;;;25.08;15.43;;;6.90;99.90;;;;;;4969826;28;20019;-47
2023/12/16 08:55:49;;;;;;;27.67;14.55;;;6.90;99.90;;;;;;4969937;28;20102;-45
2023/12/16 08:58:15;;;;;;;25.15;14.48;;;6.90;99.90;;;;;;4969928;28;20188;-46
2023/12/16 09:00:41;;;;;;;24.60;15.48;;;6.80;99.90;;;;;;4952147;28;20038;-46
2023/12/16 09:03:06;;;;;;;31.80;14.20;;;6.90;99.90;;;;;;4969381;28;20482;-50
2023/12/16 09:05:32;;;;;;;22.98;15.05;;;6.90;99.90;;;;;;4958109;28;20093;-46
2023/12/16 09:07:57;;;;;;;21.20;14.43;;;6.90;99.90;;;;;;4969342;28;20034;-46
2023/12/16 09:10:23;;;;;;;25.40;15.45;;;6.90;99.90;;;;;;4973018;28;20033;-45
2023/12/16 09:12:48;;;;;;;21.17;13.77;;;7.00;99.90;;;;;;4972618;28;20023;-50
2023/12/16 09:15:16;;;;;;;24.52;13.82;;;7.00;99.90;;;;;;4972919;28;20027;-46
2023/12/16 09:17:41;;;;;;;21.35;14.60;;;6.90;99.90;;;;;;4970695;28;20026;-49
2023/12/16 09:20:07;;;;;;;25.80;15.57;;;6.90;99.90;;;;;;4957997;28;20034;-50
2023/12/16 09:22:33;;;;;;;24.98;14.82;;;7.00;99.90;;;;;;4968487;28;20066;-50
2023/12/16 09:25:00;;;;;;;19.58;14.35;;;7.00;99.90;;;;;;4964407;28;20116;-48
2023/12/16 09:27:26;;;;;;;23.65;15.02;;;7.00;99.90;;;;;;4972397;28;20027;-47
2023/12/16 09:29:51;;;;;;;21.45;13.32;;;7.00;99.90;;;;;;4972514;28;20027;-48
2023/12/16 09:32:17;;;;;;;22.50;14.00;;;7.00;99.90;;;;;;4972487;28;20031;-48
2023/12/16 09:34:42;;;;;;;19.95;14.02;;;7.00;99.90;;;;;;4972274;28;20022;-52
2023/12/16 09:37:08;;;;;;;21.55;13.50;;;7.10;99.90;;;;;;4972341;28;20037;-46
2023/12/16 09:39:34;;;;;;;22.42;13.57;;;7.20;99.90;;;;;;4972088;28;20030;-50
2023/12/16 09:42:03;;;;;;;20.60;12.38;;;7.20;99.90;;;;;;4972336;28;20031;-50
2023/12/16 09:44:34;;;;;;;21.73;12.73;;;7.20;99.90;;;;;;4972259;28;20542;-51
2023/12/16 09:47:00;;;;;;;21.20;13.60;;;7.30;99.90;;;;;;4972197;28;20023;-50
2023/12/16 09:49:26;;;;;;;20.73;13.23;;;7.30;99.90;;;;;;4972316;28;20042;-48
2023/12/16 09:51:52;;;;;;;23.90;10.73;;;7.30;99.90;;;;;;4972150;28;20402;-51
2023/12/16 09:54:18;;;;;;;19.35;11.40;;;7.40;99.90;;;;;;4971951;28;20019;-46
2023/12/16 09:56:48;;;;;;;20.15;11.52;;;7.40;99.90;;;;;;4954844;28;20031;-50
2023/12/16 09:59:15;;;;;;;20.35;12.05;;;7.40;99.90;;;;;;4972261;28;20031;-48
2023/12/16 10:01:52;;;;;;;17.58;11.02;;;7.50;99.90;;;;;;4972132;28;20053;-47
2023/12/16 10:04:18;;;;;;;19.38;11.05;;;7.50;99.90;;;;;;4954625;28;20516;-50
2023/12/16 10:06:44;;;;;;;19.70;10.98;;;7.50;99.90;;;;;;4971850;28;20022;-49
2023/12/16 10:09:09;;;;;;;21.50;11.48;;;7.60;99.90;;;;;;4964147;28;20031;-49
2023/12/16 10:11:39;;;;;;;15.43;10.30;;;7.60;99.90;;;;;;4964057;28;20382;-50
2023/12/16 10:14:05;;;;;;;16.08;9.40;;;7.60;99.90;;;;;;4965833;28;20047;-54
2023/12/16 10:16:30;;;;;;;14.70;9.40;;;7.70;99.90;;;;;;4963515;28;20467;-50
2023/12/16 10:18:57;;;;;;;18.17;9.13;;;7.70;99.90;;;;;;4935371;28;20027;-52
2023/12/16 10:21:31;;;;;;;16.58;9.00;;;7.80;99.90;;;;;;4962546;28;20058;-51
2023/12/16 10:24:00;;;;;;;19.63;10.18;;;7.80;99.90;;;;;;4968210;28;20144;-49
2023/12/16 10:26:29;;;;;;;15.10;8.82;;;7.80;99.90;;;;;;4962729;28;20042;-50
2023/12/16 10:28:55;;;;;;;13.93;9.55;;;7.80;99.90;;;;;;4970002;28;20081;-48
2023/12/16 10:31:22;;;;;;;15.27;9.43;;;7.80;99.90;;;;;;4971107;28;20027;-52
2023/12/16 10:33:50;;;;;;;16.58;10.15;;;7.80;99.90;;;;;;4965140;28;20114;-51
2023/12/16 10:36:17;;;;;;;15.10;9.77;;;7.80;99.90;;;;;;4972624;28;20102;-47
2023/12/16 10:38:43;;;;;;;19.65;9.77;;;7.80;99.90;;;;;;4972833;28;20031;-53
2023/12/16 10:41:11;;;;;;;18.52;10.18;;;7.80;99.90;;;;;;4972478;28;20064;-51
2023/12/16 10:43:40;;;;;;;18.27;9.48;;;7.80;99.90;;;;;;4970482;28;20023;-50
2023/12/16 10:46:06;;;;;;;16.75;10.52;;;7.80;99.90;;;;;;4972561;28;20079;-50
2023/12/16 10:48:34;;;;;;;13.65;9.70;;;7.80;99.90;;;;;;4950138;28;20121;-52
2023/12/16 10:51:05;;;;;;;16.13;9.70;;;7.90;99.90;;;;;;4970406;28;20031;-54
2023/12/16 10:53:40;;;;;;;15.50;9.82;;;7.90;99.90;;;;;;4952250;28;20078;-51
2023/12/16 10:56:13;;;;;;;15.00;10.13;;;7.90;99.90;;;;;;4952244;29;20023;-48
2023/12/16 10:58:47;;;;;;;15.00;8.25;;;8.00;99.90;;;;;;4937254;28;20043;-51
2023/12/16 11:01:18;;;;;;;18.27;9.32;;;8.00;99.90;;;;;;4951997;28;20045;-52
2023/12/16 11:03:54;;;;;;;22.23;9.13;;;8.10;99.90;;;;;;4934682;28;20029;-53
2023/12/16 11:06:30;;;;;;;16.60;8.68;;;8.20;99.90;;;;;;4953127;28;20052;-49
2023/12/16 11:08:57;;;;;;;;;;;8.20;99.90;;;;;;4952812;28;20038;-49
2023/12/16 11:11:23;;;;;;;17.77;7.60;;;8.30;99.90;;;;;;4951868;29;20404;-51
2023/12/16 11:13:52;;;;;;;17.23;7.57;;;8.40;99.90;;;;;;4953930;28;20070;-48
2023/12/16 11:16:27;;;;;;;12.13;7.25;;;8.50;99.90;;;;;;4986144;28;20017;-55
2023/12/16 11:18:55;;;;;;;11.77;7.65;;;8.40;99.90;;;;;;4981055;28;20034;-47
2023/12/16 11:21:22;;;;;;;18.52;8.25;;;8.50;99.90;;;;;;4970588;28;20022;-48
2023/12/16 11:23:48;;;;;;;15.63;8.73;;;8.60;99.90;;;;;;4969444;28;20490;-50
2023/12/16 11:26:16;;;;;;;14.60;6.30;;;8.50;99.90;;;;;;4934308;29;20153;-48
2023/12/16 11:28:42;;;;;;;12.85;7.65;;;8.50;99.90;;;;;;4934042;29;20119;-51
2023/12/16 11:31:10;;;;;;;16.98;8.15;;;8.50;99.90;;;;;;4950517;28;20094;-50
2023/12/16 11:33:44;;;;;;;19.25;7.45;;;8.50;99.90;;;;;;4940634;28;20035;-50
2023/12/16 11:36:09;;;;;;;11.35;7.47;;;8.50;99.90;;;;;;4965457;28;20042;-56
2023/12/16 11:38:41;;;;;;;12.48;7.35;;;8.50;99.90;;;;;;4963687;28;20474;-52
2023/12/16 11:41:07;;;;;;;13.57;7.28;;;8.50;99.90;;;;;;4954613;28;20105;-55
2023/12/16 11:43:53;;;;;;;13.65;7.25;;;8.50;99.90;;;;;;4971989;28;20034;-49
2023/12/16 11:46:44;;;;;;;16.15;6.97;;;8.60;99.90;;;;;;4972310;28;20054;-55
2023/12/16 11:49:14;;;;;;;14.57;6.97;;;8.60;99.90;;;;;;4967945;28;20646;-50
2023/12/16 11:51:40;;;;;;;11.32;6.82;;;8.60;99.90;;;;;;4951849;28;20030;-49
2023/12/16 11:54:07;;;;;;;15.20;6.63;;;8.60;99.90;;;;;;4960883;28;20028;-46
2023/12/16 11:56:33;;;;;;;16.33;7.22;;;8.60;99.90;;;;;;4970337;28;20121;-49
2023/12/16 11:59:00;;;;;;;16.65;6.78;;;8.70;99.90;;;;;;4966787;28;20148;-48
2023/12/16 12:01:33;;;;;;;14.35;6.38;;;8.80;99.90;;;;;;4966806;28;20518;-53
2023/12/16 12:04:02;;;;;;;12.55;7.28;;;8.80;99.90;;;;;;4937502;29;20108;-52
2023/12/16 12:06:28;;;;;;;13.65;5.93;;;8.80;99.90;;;;;;4960407;28;20493;-52
2023/12/16 12:08:54;;;;;;;9.40;6.07;;;8.80;99.90;;;;;;4960282;28;20026;-52
2023/12/16 12:11:22;;;;;;;19.33;7.05;;;8.90;99.90;;;;;;4952954;28;20402;-51
2023/12/16 12:13:51;;;;;;;15.60;6.95;;;8.90;99.90;;;;;;4970079;28;20367;-53
2023/12/16 12:16:17;;;;;;;15.80;6.40;;;8.90;99.90;;;;;;4970347;28;20023;-49
2023/12/16 12:18:42;;;;;;;9.50;5.57;;;8.90;99.90;;;;;;4970172;28;20509;-53
2023/12/16 12:21:09;;;;;;;16.60;7.38;;;8.90;99.90;;;;;;4969877;28;20023;-52
2023/12/16 12:23:36;;;;;;;10.55;6.43;;;9.00;99.90;;;;;;4970002;28;20112;-52
2023/12/16 12:26:03;;;;;;;13.90;5.75;;;9.00;99.90;;;;;;4970013;28;20029;-52
2023/12/16 12:28:28;;;;;;;13.07;5.95;;;9.00;99.90;;;;;;4952923;28;20089;-51
2023/12/16 12:31:06;;;;;;;18.52;6.15;;;9.10;99.90;;;;;;4969955;28;20030;-53
2023/12/16 12:33:32;;;;;;;10.65;5.68;;;9.20;99.90;;;;;;4969763;28;20042;-50
2023/12/16 12:35:58;;;;;;;12.57;5.75;;;9.20;99.90;;;;;;4990326;22;20050;-47